Time,TemperatureF,DewpointF,PressureIn,WindDirection,WindDirectionDegrees,WindSpeedMPH,WindSpeedGustMPH,Humidity,HourlyPrecipIn,Conditions,Clouds,dailyrainin,SoftwareType,DateUTC
2013-01-29 00:03:00,22.5,19.4,30.12,South,182,1.0,2.0,88,0.00,,,0.00,WUHU216DAVISVP2,2013-01-29 07:03:00,
2013-01-29 00:08:00,22.4,19.4,30.13,WSW,247,0.0,2.0,88,0.00,,,0.00,WUHU216DAVISVP2,2013-01-29 07:08:00,
2013-01-29 00:13:00,22.4,19.6,30.13,WNW,294,0.0,2.0,89,0.00,,,0.00,WUHU216DAVISVP2,2013-01-29 07:13:00,
2013-01-29 00:18:00,22.5,19.4,30.13,WNW,294,2.0,2.0,88,0.00,,,0.00,WUHU216DAVISVP2,2013-01-29 07:18:00,
2013-01-29 00:23:00,22.8,19.7,30.13,WNW,284,1.0,2.0,88,0.00,,,0.00,WUHU216DAVISVP2,2013-01-29 07:23:00,
2013-01-29 00:28:00,22.9,19.8,30.13,WNW,286,2.0,2.0,88,0.00,,,0.00,WUHU216DAVISVP2,2013-01-29 07:28:00,
2013-01-29 00:33:00,22.9,19.8,30.13,WNW,284,0.0,3.0,88,0.00,,,0.00,WUHU216DAVISVP2,2013-01-29 07:33:00,
2013-01-29 00:38:00,23.0,19.7,30.13,WNW,285,0.0,3.0,87,0.00,,,0.00,WUHU216DAVISVP2,2013-01-29 07:38:00,
2013-01-29 00:43:00,23.0,19.7,30.13,WNW,291,0.0,2.0,87,0.00,,,0.00,WUHU216DAVISVP2,2013-01-29 07:43:00,
2013-01-29 00:48:00,23.0,19.7,30.14,WNW,291,0.0,2.0,87,0.00,,,0.00,WUHU216DAVISVP2,2013-01-29 07:48:00,
2013-01-29 00:53:00,22.7,19.4,30.13,WNW,290,1.0,1.0,87,0.00,,,0.00,WUHU216DAVISVP2,2013-01-29 07:53:00,
2013-01-29 00:58:00,22.7,18.8,30.14,WNW,296,1.0,4.0,85,0.00,,,0.00,WUHU216DAVISVP2,2013-01-29 07:58:00,
2013-01-29 01:03:00,22.9,18.8,30.13,NW,313,1.0,4.0,84,0.00,,,0.00,WUHU216DAVISVP2,2013-01-29 08:03:00,
2013-01-29 01:08:00,23.1,18.7,30.13,NW,319,0.0,7.0,83,0.00,,,0.00,WUHU216DAVISVP2,2013-01-29 08:08:00,
2013-01-29 01:13:00,23.1,18.7,30.13,NNW,327,1.0,7.0,83,0.00,,,0.00,WUHU216DAVISVP2,2013-01-29 08:13:00,
2013-01-29 01:18:00,23.3,18.6,30.14,WNW,284,1.0,6.0,82,0.00,,,0.00,WUHU216DAVISVP2,2013-01-29 08:18:00,
2013-01-29 01:23:00,23.4,18.7,30.14,WNW,298,5.0,7.0,82,0.00,,,0.00,WUHU216DAVISVP2,2013-01-29 08:23:00,
2013-01-29 01:28:00,23.6,18.9,30.14,NNW,342,3.0,7.0,82,0.00,,,0.00,WUHU216DAVISVP2,2013-01-29 08:28:00,
2013-01-29 01:33:00,23.5,18.8,30.14,NNW,330,0.0,7.0,82,0.00,,,0.00,WUHU216DAVISVP2,2013-01-29 08:33:00,
2013-01-29 01:38:00,23.6,18.9,30.14,WNW,286,0.0,8.0,82,0.00,,,0.00,WUHU216DAVISVP2,2013-01-29 08:38:00,
2013-01-29 01:43:00,23.7,19.0,30.14,NW,304,2.0,9.0,82,0.00,,,0.00,WUHU216DAVISVP2,2013-01-29 08:43:00,
2013-01-29 01:48:00,23.7,19.0,30.15,NNW,331,1.0,9.0,82,0.00,,,0.00,WUHU216DAVISVP2,2013-01-29 08:48:00,
2013-01-29 01:53:00,23.6,18.9,30.15,NW,318,1.0,5.0,82,0.00,,,0.00,WUHU216DAVISVP2,2013-01-29 08:53:00,
2013-01-29 01:58:00,23.5,18.8,30.15,WNW,290,4.0,5.0,82,0.00,,,0.00,WUHU216DAVISVP2,2013-01-29 08:58:00,
2013-01-29 02:03:00,23.5,18.8,30.15,NNW,329,1.0,9.0,82,0.00,,,0.00,WUHU216DAVISVP2,2013-01-29 09:03:00,
2013-01-29 02:08:00,23.5,18.8,30.15,NW,311,2.0,9.0,82,0.00,,,0.00,WUHU216DAVISVP2,2013-01-29 09:08:00,
2013-01-29 02:13:00,23.4,18.7,30.15,WNW,293,0.0,4.0,82,0.00,,,0.00,WUHU216DAVISVP2,2013-01-29 09:13:00,
2013-01-29 02:18:00,23.3,18.6,30.15,WNW,290,2.0,6.0,82,0.00,,,0.00,WUHU216DAVISVP2,2013-01-29 09:18:00,
2013-01-29 02:23:00,23.1,18.7,30.15,WNW,288,0.0,6.0,83,0.00,,,0.00,WUHU216DAVISVP2,2013-01-29 09:23:00,
2013-01-29 02:28:00,22.7,18.3,30.15,WNW,288,0.0,2.0,83,0.00,,,0.00,WUHU216DAVISVP2,2013-01-29 09:28:00,
2013-01-29 02:33:00,22.4,18.3,30.15,WSW,250,0.0,3.0,84,0.00,,,0.00,WUHU216DAVISVP2,2013-01-29 09:33:00,
2013-01-29 02:38:00,22.0,18.2,30.15,WSW,250,0.0,3.0,85,0.00,,,0.00,WUHU216DAVISVP2,2013-01-29 09:38:00,
2013-01-29 02:43:00,21.6,17.8,30.15,WSW,250,0.0,0.0,85,0.00,,,0.00,WUHU216DAVISVP2,2013-01-29 09:43:00,
2013-01-29 02:48:00,21.5,17.9,30.16,WSW,250,0.0,1.0,86,0.00,,,0.00,WUHU216DAVISVP2,2013-01-29 09:48:00,
2013-01-29 02:53:00,21.3,17.7,30.15,SW,229,1.0,2.0,86,0.00,,,0.00,WUHU216DAVISVP2,2013-01-29 09:53:00,
2013-01-29 02:58:00,21.1,17.6,30.15,SW,229,0.0,2.0,86,0.00,,,0.00,WUHU216DAVISVP2,2013-01-29 09:58:00,
2013-01-29 03:03:00,20.9,17.3,30.15,SW,229,0.0,2.0,86,0.00,,,0.00,WUHU216DAVISVP2,2013-01-29 10:03:00,
2013-01-29 03:08:00,20.7,17.4,30.15,SW,229,0.0,1.0,87,0.00,,,0.00,WUHU216DAVISVP2,2013-01-29 10:08:00,
2013-01-29 03:13:00,20.6,17.0,30.16,SW,229,1.0,2.0,86,0.00,,,0.00,WUHU216DAVISVP2,2013-01-29 10:13:00,
2013-01-29 03:18:00,20.9,17.3,30.16,WSW,252,1.0,2.0,86,0.00,,,0.00,WUHU216DAVISVP2,2013-01-29 10:18:00,
2013-01-29 03:23:00,21.1,17.3,30.16,WSW,252,1.0,2.0,85,0.00,,,0.00,WUHU216DAVISVP2,2013-01-29 10:23:00,
2013-01-29 03:28:00,21.3,17.5,30.16,WNW,285,2.0,2.0,85,0.00,,,0.00,WUHU216DAVISVP2,2013-01-29 10:28:00,
2013-01-29 03:33:00,21.5,17.4,30.16,WNW,285,1.0,2.0,84,0.00,,,0.00,WUHU216DAVISVP2,2013-01-29 10:33:00,
2013-01-29 03:38:00,21.7,17.3,30.16,WNW,285,0.0,2.0,83,0.00,,,0.00,WUHU216DAVISVP2,2013-01-29 10:38:00,
2013-01-29 03:43:00,21.8,17.1,30.16,WNW,286,0.0,4.0,82,0.00,,,0.00,WUHU216DAVISVP2,2013-01-29 10:43:00,
2013-01-29 03:48:00,21.8,17.4,30.16,WNW,286,0.0,4.0,83,0.00,,,0.00,WUHU216DAVISVP2,2013-01-29 10:48:00,
2013-01-29 03:53:00,21.7,17.3,30.16,WNW,284,1.0,2.0,83,0.00,,,0.00,WUHU216DAVISVP2,2013-01-29 10:53:00,
2013-01-29 03:58:00,20.9,17.1,30.16,South,185,1.0,3.0,85,0.00,,,0.00,WUHU216DAVISVP2,2013-01-29 10:58:00,
2013-01-29 04:03:00,19.9,16.4,30.16,SSW,194,0.0,3.0,86,0.00,,,0.00,WUHU216DAVISVP2,2013-01-29 11:03:00,
2013-01-29 04:08:00,19.3,16.0,30.16,SSW,194,0.0,2.0,87,0.00,,,0.00,WUHU216DAVISVP2,2013-01-29 11:08:00,
2013-01-29 04:13:00,19.2,15.9,30.16,SSW,192,1.0,2.0,87,0.00,,,0.00,WUHU216DAVISVP2,2013-01-29 11:13:00,
2013-01-29 04:18:00,19.3,16.3,30.16,SSW,192,0.0,2.0,88,0.00,,,0.00,WUHU216DAVISVP2,2013-01-29 11:18:00,
2013-01-29 04:23:00,19.3,16.3,30.16,South,191,0.0,2.0,88,0.00,,,0.00,WUHU216DAVISVP2,2013-01-29 11:23:00,
2013-01-29 04:28:00,19.2,16.2,30.16,SSW,200,0.0,1.0,88,0.00,,,0.00,WUHU216DAVISVP2,2013-01-29 11:28:00,
2013-01-29 04:33:00,19.2,16.2,30.16,SW,232,2.0,2.0,88,0.00,,,0.00,WUHU216DAVISVP2,2013-01-29 11:33:00,
2013-01-29 04:38:00,19.8,16.6,30.16,SW,220,2.0,4.0,87,0.00,,,0.00,WUHU216DAVISVP2,2013-01-29 11:38:00,
2013-01-29 04:43:00,20.0,16.7,30.16,SW,225,0.0,4.0,87,0.00,,,0.00,WUHU216DAVISVP2,2013-01-29 11:43:00,
2013-01-29 04:48:00,20.1,16.8,30.16,SW,225,0.0,3.0,87,0.00,,,0.00,WUHU216DAVISVP2,2013-01-29 11:48:00,
2013-01-29 04:53:00,20.2,16.9,30.16,SW,224,0.0,3.0,87,0.00,,,0.00,WUHU216DAVISVP2,2013-01-29 11:53:00,
2013-01-29 04:58:00,20.0,16.8,30.16,SW,224,1.0,1.0,87,0.00,,,0.00,WUHU216DAVISVP2,2013-01-29 11:58:00,
2013-01-29 05:03:00,20.1,16.8,30.16,SSW,209,2.0,3.0,87,0.00,,,0.00,WUHU216DAVISVP2,2013-01-29 12:03:00,
2013-01-29 05:08:00,20.0,17.0,30.17,SSW,209,0.0,3.0,88,0.00,,,0.00,WUHU216DAVISVP2,2013-01-29 12:08:00,
2013-01-29 05:13:00,20.0,17.0,30.17,SSW,209,1.0,2.0,88,0.00,,,0.00,WUHU216DAVISVP2,2013-01-29 12:13:00,
2013-01-29 05:18:00,20.0,17.0,30.17,SSW,209,1.0,2.0,88,0.00,,,0.00,WUHU216DAVISVP2,2013-01-29 12:18:00,
2013-01-29 05:23:00,20.0,17.0,30.17,SSW,207,3.0,3.0,88,0.00,,,0.00,WUHU216DAVISVP2,2013-01-29 12:23:00,
2013-01-29 05:28:00,19.8,16.8,30.17,SSW,207,1.0,3.0,88,0.00,,,0.00,WUHU216DAVISVP2,2013-01-29 12:28:00,
2013-01-29 05:33:00,19.6,16.6,30.17,SSW,207,1.0,3.0,88,0.00,,,0.00,WUHU216DAVISVP2,2013-01-29 12:33:00,
2013-01-29 05:38:00,19.9,16.9,30.17,SSW,207,2.0,3.0,88,0.00,,,0.00,WUHU216DAVISVP2,2013-01-29 12:38:00,
2013-01-29 05:43:00,20.0,17.0,30.17,SSW,207,1.0,3.0,88,0.00,,,0.00,WUHU216DAVISVP2,2013-01-29 12:43:00,
2013-01-29 05:48:00,20.0,16.7,30.17,SSW,207,1.0,3.0,87,0.00,,,0.00,WUHU216DAVISVP2,2013-01-29 12:48:00,
2013-01-29 05:53:00,19.8,16.5,30.17,SSW,207,0.0,3.0,87,0.00,,,0.00,WUHU216DAVISVP2,2013-01-29 12:53:00,
2013-01-29 05:58:00,19.6,16.3,30.17,SSW,207,0.0,2.0,87,0.00,,,0.00,WUHU216DAVISVP2,2013-01-29 12:58:00,
2013-01-29 06:03:00,19.5,16.5,30.17,SSW,207,1.0,2.0,88,0.00,,,0.00,WUHU216DAVISVP2,2013-01-29 13:03:00,
2013-01-29 06:08:00,19.4,16.4,30.18,SW,224,3.0,3.0,88,0.00,,,0.00,WUHU216DAVISVP2,2013-01-29 13:08:00,
2013-01-29 06:13:00,19.6,16.8,30.18,SW,215,1.0,3.0,89,0.00,,,0.00,WUHU216DAVISVP2,2013-01-29 13:13:00,
2013-01-29 06:18:00,19.8,17.0,30.18,SW,221,0.0,3.0,89,0.00,,,0.00,WUHU216DAVISVP2,2013-01-29 13:18:00,
2013-01-29 06:23:00,19.9,16.9,30.19,SW,232,0.0,2.0,88,0.00,,,0.00,WUHU216DAVISVP2,2013-01-29 13:23:00,
2013-01-29 06:28:00,20.1,17.1,30.19,SW,231,1.0,3.0,88,0.00,,,0.00,WUHU216DAVISVP2,2013-01-29 13:28:00,
2013-01-29 06:33:00,20.0,16.7,30.19,SW,220,2.0,3.0,87,0.00,,,0.00,WUHU216DAVISVP2,2013-01-29 13:33:00,
2013-01-29 06:38:00,19.7,16.5,30.19,SW,216,2.0,4.0,87,0.00,,,0.00,WUHU216DAVISVP2,2013-01-29 13:38:00,
2013-01-29 06:43:00,19.8,16.5,30.19,SSW,203,3.0,5.0,87,0.00,,,0.00,WUHU216DAVISVP2,2013-01-29 13:43:00,
2013-01-29 06:48:00,19.8,16.3,30.19,SW,220,1.0,5.0,86,0.00,,,0.00,WUHU216DAVISVP2,2013-01-29 13:48:00,
2013-01-29 06:53:00,19.8,16.3,30.20,SW,230,2.0,4.0,86,0.00,,,0.00,WUHU216DAVISVP2,2013-01-29 13:53:00,
2013-01-29 06:58:00,19.6,16.1,30.20,SW,229,2.0,3.0,86,0.00,,,0.00,WUHU216DAVISVP2,2013-01-29 13:58:00,
2013-01-29 07:03:00,19.5,16.0,30.20,SW,229,1.0,3.0,86,0.00,,,0.00,WUHU216DAVISVP2,2013-01-29 14:03:00,
2013-01-29 07:08:00,19.8,16.3,30.21,SW,229,1.0,3.0,86,0.00,,,0.00,WUHU216DAVISVP2,2013-01-29 14:08:00,
2013-01-29 07:13:00,19.9,16.1,30.21,SW,232,1.0,3.0,85,0.00,,,0.00,WUHU216DAVISVP2,2013-01-29 14:13:00,
2013-01-29 07:18:00,19.9,16.1,30.22,SW,229,1.0,3.0,85,0.00,,,0.00,WUHU216DAVISVP2,2013-01-29 14:18:00,
2013-01-29 07:23:00,19.9,16.1,30.22,SW,222,1.0,4.0,85,0.00,,,0.00,WUHU216DAVISVP2,2013-01-29 14:23:00,
2013-01-29 07:28:00,19.9,15.8,30.21,SW,221,1.0,4.0,84,0.00,,,0.00,WUHU216DAVISVP2,2013-01-29 14:28:00,
2013-01-29 07:33:00,20.0,15.9,30.21,SW,222,1.0,3.0,84,0.00,,,0.00,WUHU216DAVISVP2,2013-01-29 14:33:00,
2013-01-29 07:38:00,19.9,15.8,30.21,SSW,202,1.0,3.0,84,0.00,,,0.00,WUHU216DAVISVP2,2013-01-29 14:38:00,
2013-01-29 07:43:00,20.0,15.9,30.21,SW,234,4.0,4.0,84,0.00,,,0.00,WUHU216DAVISVP2,2013-01-29 14:43:00,
2013-01-29 07:48:00,20.2,16.1,30.22,SSW,204,1.0,6.0,84,0.00,,,0.00,WUHU216DAVISVP2,2013-01-29 14:48:00,
2013-01-29 07:53:00,20.3,16.0,30.22,WSW,245,1.0,6.0,83,0.00,,,0.00,WUHU216DAVISVP2,2013-01-29 14:53:00,
2013-01-29 07:58:00,20.6,16.0,30.22,South,186,1.0,4.0,82,0.00,,,0.00,WUHU216DAVISVP2,2013-01-29 14:58:00,
2013-01-29 08:03:00,21.0,16.4,30.22,SSW,196,1.0,3.0,82,0.00,,,0.00,WUHU216DAVISVP2,2013-01-29 15:03:00,
2013-01-29 08:08:00,21.4,16.5,30.23,SSW,202,1.0,3.0,81,0.00,,,0.00,WUHU216DAVISVP2,2013-01-29 15:08:00,
2013-01-29 08:13:00,21.5,16.6,30.22,SW,223,3.0,4.0,81,0.00,,,0.00,WUHU216DAVISVP2,2013-01-29 15:13:00,
2013-01-29 08:18:00,21.7,16.8,30.22,SW,235,3.0,4.0,81,0.00,,,0.00,WUHU216DAVISVP2,2013-01-29 15:18:00,
2013-01-29 08:23:00,22.3,16.8,30.23,WSW,244,5.0,5.0,79,0.00,,,0.00,WUHU216DAVISVP2,2013-01-29 15:23:00,
2013-01-29 08:28:00,23.0,16.6,30.23,WSW,258,1.0,7.0,76,0.00,,,0.00,WUHU216DAVISVP2,2013-01-29 15:28:00,
2013-01-29 08:33:00,23.5,16.7,30.23,West,264,4.0,7.0,75,0.00,,,0.00,WUHU216DAVISVP2,2013-01-29 15:33:00,
2013-01-29 08:38:00,23.8,17.0,30.24,WSW,244,5.0,6.0,75,0.00,,,0.00,WUHU216DAVISVP2,2013-01-29 15:38:00,
2013-01-29 08:43:00,24.2,17.4,30.24,WSW,250,6.0,7.0,75,0.00,,,0.00,WUHU216DAVISVP2,2013-01-29 15:43:00,
2013-01-29 08:48:00,24.6,17.8,30.23,WSW,240,1.0,7.0,75,0.00,,,0.00,WUHU216DAVISVP2,2013-01-29 15:48:00,
2013-01-29 08:53:00,25.0,18.2,30.24,WSW,250,4.0,6.0,75,0.00,,,0.00,WUHU216DAVISVP2,2013-01-29 15:53:00,
2013-01-29 08:58:00,25.4,18.6,30.24,WSW,255,3.0,6.0,75,0.00,,,0.00,WUHU216DAVISVP2,2013-01-29 15:58:00,
2013-01-29 09:03:00,25.8,18.7,30.25,West,280,2.0,6.0,74,0.00,,,0.00,WUHU216DAVISVP2,2013-01-29 16:03:00,
2013-01-29 09:08:00,26.3,18.5,30.25,WSW,241,4.0,6.0,72,0.00,,,0.00,WUHU216DAVISVP2,2013-01-29 16:08:00,
2013-01-29 09:13:00,26.7,18.2,30.25,West,268,3.0,7.0,70,0.00,,,0.00,WUHU216DAVISVP2,2013-01-29 16:13:00,
2013-01-29 09:18:00,27.2,18.8,30.25,WSW,250,3.0,7.0,70,0.00,,,0.00,WUHU216DAVISVP2,2013-01-29 16:18:00,
2013-01-29 09:23:00,27.7,19.2,30.25,WSW,257,1.0,4.0,70,0.00,,,0.00,WUHU216DAVISVP2,2013-01-29 16:23:00,
2013-01-29 09:28:00,28.1,19.0,30.25,West,280,3.0,5.0,68,0.00,,,0.01,WUHU216DAVISVP2,2013-01-29 16:28:00,
2013-01-29 09:33:00,28.3,18.5,30.25,West,261,10.0,11.0,66,0.01,,,0.01,WUHU216DAVISVP2,2013-01-29 16:33:00,
2013-01-29 09:38:00,28.3,18.1,30.25,SW,236,2.0,11.0,65,0.01,,,0.01,WUHU216DAVISVP2,2013-01-29 16:38:00,
2013-01-29 09:43:00,28.4,17.8,30.25,West,273,3.0,11.0,64,0.01,,,0.01,WUHU216DAVISVP2,2013-01-29 16:43:00,
2013-01-29 09:48:00,28.7,17.7,30.25,West,269,4.0,10.0,63,0.02,,,0.02,WUHU216DAVISVP2,2013-01-29 16:48:00,
2013-01-29 09:53:00,29.0,18.4,30.25,WNW,290,3.0,10.0,64,0.02,,,0.02,WUHU216DAVISVP2,2013-01-29 16:53:00,
2013-01-29 09:58:00,29.2,18.6,30.25,SW,236,9.0,9.0,64,0.02,,,0.02,WUHU216DAVISVP2,2013-01-29 16:58:00,
2013-01-29 10:03:00,29.2,18.2,30.25,WSW,252,3.0,15.0,63,0.02,,,0.02,WUHU216DAVISVP2,2013-01-29 17:03:00,
2013-01-29 10:08:00,29.2,17.5,30.25,West,269,5.0,15.0,61,0.02,,,0.02,WUHU216DAVISVP2,2013-01-29 17:08:00,
2013-01-29 10:13:00,29.5,17.3,30.26,WSW,251,4.0,14.0,60,0.02,,,0.02,WUHU216DAVISVP2,2013-01-29 17:13:00,
2013-01-29 10:18:00,29.5,17.0,30.26,WNW,290,6.0,14.0,59,0.02,,,0.02,WUHU216DAVISVP2,2013-01-29 17:18:00,
2013-01-29 10:23:00,29.7,17.5,30.26,West,276,5.0,13.0,60,0.02,,,0.02,WUHU216DAVISVP2,2013-01-29 17:23:00,
2013-01-29 10:28:00,29.9,16.9,30.26,West,261,4.0,9.0,58,0.01,,,0.02,WUHU216DAVISVP2,2013-01-29 17:28:00,
2013-01-29 10:33:00,30.2,17.6,30.26,WSW,256,4.0,10.0,59,0.01,,,0.02,WUHU216DAVISVP2,2013-01-29 17:33:00,
2013-01-29 10:38:00,30.2,18.0,30.26,WSW,247,4.0,11.0,60,0.02,,,0.03,WUHU216DAVISVP2,2013-01-29 17:38:00,
2013-01-29 10:43:00,30.4,18.6,30.26,West,260,9.0,11.0,61,0.02,,,0.03,WUHU216DAVISVP2,2013-01-29 17:43:00,
2013-01-29 10:48:00,30.3,18.9,30.25,WSW,258,7.0,10.0,62,0.01,,,0.03,WUHU216DAVISVP2,2013-01-29 17:48:00,
2013-01-29 10:53:00,30.4,19.4,30.26,West,281,5.0,10.0,63,0.01,,,0.03,WUHU216DAVISVP2,2013-01-29 17:53:00,
2013-01-29 10:58:00,30.2,19.2,30.26,SW,236,10.0,13.0,63,0.01,,,0.03,WUHU216DAVISVP2,2013-01-29 17:58:00,
2013-01-29 11:04:00,30.3,19.3,30.26,WSW,257,7.0,13.0,63,0.01,,,0.03,WUHU216DAVISVP2,2013-01-29 18:04:00,
2013-01-29 11:09:00,30.4,19.3,30.26,West,263,6.0,11.0,63,0.01,,,0.03,WUHU216DAVISVP2,2013-01-29 18:09:00,
2013-01-29 11:14:00,30.9,20.5,30.26,West,272,7.0,11.0,65,0.01,,,0.03,WUHU216DAVISVP2,2013-01-29 18:14:00,
2013-01-29 11:19:00,30.9,19.5,30.26,WSW,249,6.0,12.0,62,0.02,,,0.04,WUHU216DAVISVP2,2013-01-29 18:19:00,
2013-01-29 11:24:00,31.1,19.3,30.26,West,265,8.0,12.0,61,0.02,,,0.04,WUHU216DAVISVP2,2013-01-29 18:24:00,
2013-01-29 11:29:00,31.4,19.5,30.27,WSW,248,5.0,10.0,61,0.02,,,0.04,WUHU216DAVISVP2,2013-01-29 18:29:00,
2013-01-29 11:34:00,31.5,18.9,30.27,WSW,248,3.0,12.0,59,0.02,,,0.04,WUHU216DAVISVP2,2013-01-29 18:34:00,
2013-01-29 11:39:00,31.7,20.2,30.27,West,261,5.0,12.0,62,0.01,,,0.04,WUHU216DAVISVP2,2013-01-29 18:39:00,
2013-01-29 11:44:00,31.7,19.8,30.27,West,276,8.0,12.0,61,0.01,,,0.04,WUHU216DAVISVP2,2013-01-29 18:44:00,
2013-01-29 11:49:00,31.7,19.4,30.26,West,280,7.0,14.0,60,0.01,,,0.04,WUHU216DAVISVP2,2013-01-29 18:49:00,
2013-01-29 11:54:00,32.2,20.3,30.27,WSW,242,7.0,14.0,61,0.01,,,0.04,WUHU216DAVISVP2,2013-01-29 18:54:00,
2013-01-29 11:59:00,32.4,20.9,30.27,WSW,242,7.0,12.0,62,0.01,,,0.04,WUHU216DAVISVP2,2013-01-29 18:59:00,
2013-01-29 12:04:00,32.6,20.6,30.26,WSW,248,7.0,13.0,61,0.01,,,0.04,WUHU216DAVISVP2,2013-01-29 19:04:00,
2013-01-29 12:09:00,32.7,20.0,30.26,WSW,247,5.0,17.0,59,0.01,,,0.04,WUHU216DAVISVP2,2013-01-29 19:09:00,
2013-01-29 12:14:00,32.7,20.4,30.26,West,269,9.0,17.0,60,0.01,,,0.04,WUHU216DAVISVP2,2013-01-29 19:14:00,
2013-01-29 12:19:00,33.0,21.1,30.26,WSW,252,7.0,11.0,61,0.00,,,0.04,WUHU216DAVISVP2,2013-01-29 19:19:00,
2013-01-29 12:24:00,32.8,20.5,30.26,West,265,10.0,13.0,60,0.01,,,0.05,WUHU216DAVISVP2,2013-01-29 19:24:00,
2013-01-29 12:29:00,32.7,21.2,30.26,WSW,242,8.0,13.0,62,0.01,,,0.05,WUHU216DAVISVP2,2013-01-29 19:29:00,
2013-01-29 12:34:00,33.2,21.6,30.25,West,259,5.0,12.0,62,0.01,,,0.05,WUHU216DAVISVP2,2013-01-29 19:34:00,
2013-01-29 12:39:00,33.7,22.1,30.25,WSW,246,12.0,13.0,62,0.01,,,0.05,WUHU216DAVISVP2,2013-01-29 19:39:00,
2013-01-29 12:44:00,33.7,21.3,30.24,WNW,290,4.0,13.0,60,0.01,,,0.05,WUHU216DAVISVP2,2013-01-29 19:44:00,
2013-01-29 12:49:00,33.7,20.9,30.25,WSW,246,12.0,12.0,59,0.01,,,0.05,WUHU216DAVISVP2,2013-01-29 19:49:00,
2013-01-29 12:54:00,33.8,22.1,30.25,WSW,257,5.0,13.0,62,0.01,,,0.05,WUHU216DAVISVP2,2013-01-29 19:54:00,
2013-01-29 12:57:00,34.1,22.1,30.24,SW,232,6.0,13.0,61,0.01,,,0.05,WUHU216DAVISVP2,2013-01-29 19:57:00,
2013-01-29 13:02:00,34.0,21.2,30.24,West,277,7.0,13.0,59,0.01,,,0.05,WUHU216DAVISVP2,2013-01-29 20:02:00,
2013-01-29 13:07:00,34.2,22.2,30.24,West,277,5.0,13.0,61,0.01,,,0.05,WUHU216DAVISVP2,2013-01-29 20:07:00,
2013-01-29 13:12:00,34.4,22.7,30.24,West,280,4.0,15.0,62,0.01,,,0.05,WUHU216DAVISVP2,2013-01-29 20:12:00,
2013-01-29 13:17:00,34.0,20.8,30.24,West,275,6.0,15.0,58,0.02,,,0.06,WUHU216DAVISVP2,2013-01-29 20:17:00,
2013-01-29 13:22:00,33.8,21.0,30.23,West,279,6.0,11.0,59,0.01,,,0.06,WUHU216DAVISVP2,2013-01-29 20:22:00,
2013-01-29 13:27:00,33.5,21.5,30.23,SW,221,8.0,12.0,61,0.01,,,0.06,WUHU216DAVISVP2,2013-01-29 20:27:00,
2013-01-29 13:32:00,34.0,22.0,30.23,WNW,292,6.0,12.0,61,0.01,,,0.06,WUHU216DAVISVP2,2013-01-29 20:32:00,
2013-01-29 13:37:00,34.7,22.3,30.23,West,268,10.0,14.0,60,0.01,,,0.06,WUHU216DAVISVP2,2013-01-29 20:37:00,
2013-01-29 13:42:00,35.0,22.2,30.23,WSW,255,7.0,14.0,59,0.01,,,0.06,WUHU216DAVISVP2,2013-01-29 20:42:00,
2013-01-29 13:47:00,34.9,21.6,30.23,NW,326,4.0,14.0,58,0.01,,,0.06,WUHU216DAVISVP2,2013-01-29 20:47:00,
2013-01-29 13:52:00,35.5,22.2,30.23,WSW,242,6.0,15.0,58,0.01,,,0.06,WUHU216DAVISVP2,2013-01-29 20:52:00,
2013-01-29 13:57:00,35.7,22.8,30.23,WSW,242,8.0,15.0,59,0.01,,,0.06,WUHU216DAVISVP2,2013-01-29 20:57:00,
2013-01-29 14:02:00,35.9,22.2,30.23,WSW,250,6.0,14.0,57,0.01,,,0.06,WUHU216DAVISVP2,2013-01-29 21:02:00,
2013-01-29 14:07:00,36.1,23.6,30.23,WSW,255,6.0,16.0,60,0.01,,,0.06,WUHU216DAVISVP2,2013-01-29 21:07:00,
2013-01-29 14:12:00,36.2,22.0,30.23,West,259,8.0,16.0,56,0.01,,,0.06,WUHU216DAVISVP2,2013-01-29 21:12:00,
2013-01-29 14:17:00,36.5,22.7,30.23,West,281,8.0,14.0,57,0.00,,,0.06,WUHU216DAVISVP2,2013-01-29 21:17:00,
2013-01-29 14:22:00,36.5,23.2,30.22,West,261,12.0,16.0,58,0.00,,,0.06,WUHU216DAVISVP2,2013-01-29 21:22:00,
2013-01-29 14:27:00,36.5,21.9,30.22,West,273,7.0,16.0,55,0.00,,,0.06,WUHU216DAVISVP2,2013-01-29 21:27:00,
2013-01-29 14:32:00,36.6,22.4,30.22,West,267,9.0,13.0,56,0.00,,,0.06,WUHU216DAVISVP2,2013-01-29 21:32:00,
2013-01-29 14:37:00,37.1,23.3,30.23,WSW,258,12.0,15.0,57,0.00,,,0.06,WUHU216DAVISVP2,2013-01-29 21:37:00,
2013-01-29 14:42:00,37.3,22.2,30.24,WSW,254,9.0,15.0,54,0.00,,,0.06,WUHU216DAVISVP2,2013-01-29 21:42:00,
2013-01-29 14:47:00,37.5,23.2,30.24,West,281,8.0,15.0,56,0.00,,,0.06,WUHU216DAVISVP2,2013-01-29 21:47:00,
2013-01-29 14:52:00,37.6,22.4,30.24,West,280,7.0,15.0,54,0.00,,,0.06,WUHU216DAVISVP2,2013-01-29 21:52:00,
2013-01-29 14:57:00,36.9,22.7,30.23,WNW,291,7.0,14.0,56,0.00,,,0.06,WUHU216DAVISVP2,2013-01-29 21:57:00,
2013-01-29 15:02:00,36.9,22.2,30.23,West,279,3.0,14.0,55,0.00,,,0.06,WUHU216DAVISVP2,2013-01-29 22:02:00,
2013-01-29 15:07:00,36.8,22.6,30.23,West,261,8.0,16.0,56,0.00,,,0.06,WUHU216DAVISVP2,2013-01-29 22:07:00,
2013-01-29 15:12:00,37.3,20.8,30.23,NNW,342,11.0,18.0,51,0.00,,,0.06,WUHU216DAVISVP2,2013-01-29 22:12:00,
2013-01-29 15:17:00,37.2,20.7,30.23,West,266,9.0,18.0,51,0.00,,,0.06,WUHU216DAVISVP2,2013-01-29 22:17:00,
2013-01-29 15:22:00,37.1,21.1,30.23,WNW,288,10.0,12.0,52,0.00,,,0.06,WUHU216DAVISVP2,2013-01-29 22:22:00,
2013-01-29 15:27:00,37.0,20.5,30.23,WSW,254,8.0,14.0,51,0.00,,,0.06,WUHU216DAVISVP2,2013-01-29 22:27:00,
2013-01-29 15:32:00,37.1,21.1,30.23,SW,217,6.0,17.0,52,0.00,,,0.06,WUHU216DAVISVP2,2013-01-29 22:32:00,
2013-01-29 15:37:00,36.6,22.4,30.23,West,265,11.0,17.0,56,0.00,,,0.06,WUHU216DAVISVP2,2013-01-29 22:37:00,
2013-01-29 15:42:00,36.2,22.5,30.25,SW,234,9.0,14.0,57,0.00,,,0.06,WUHU216DAVISVP2,2013-01-29 22:42:00,
2013-01-29 15:47:00,36.1,22.8,30.25,WSW,244,9.0,14.0,58,0.00,,,0.06,WUHU216DAVISVP2,2013-01-29 22:47:00,
2013-01-29 15:52:00,36.2,23.2,30.24,WNW,292,6.0,12.0,59,0.00,,,0.06,WUHU216DAVISVP2,2013-01-29 22:52:00,
2013-01-29 15:57:00,36.5,23.6,30.25,WSW,254,9.0,11.0,59,0.00,,,0.06,WUHU216DAVISVP2,2013-01-29 22:57:00,
2013-01-29 16:02:00,36.8,23.9,30.25,West,266,6.0,13.0,59,0.00,,,0.06,WUHU216DAVISVP2,2013-01-29 23:02:00,
2013-01-29 16:07:00,37.1,23.3,30.24,West,275,5.0,13.0,57,0.00,,,0.06,WUHU216DAVISVP2,2013-01-29 23:07:00,
2013-01-29 16:12:00,37.1,21.1,30.25,West,280,4.0,12.0,52,0.00,,,0.06,WUHU216DAVISVP2,2013-01-29 23:12:00,
2013-01-29 16:17:00,36.7,19.3,30.25,WSW,249,7.0,16.0,49,0.00,,,0.06,WUHU216DAVISVP2,2013-01-29 23:17:00,
2013-01-29 16:22:00,36.7,19.3,30.25,WSW,245,8.0,17.0,49,0.00,,,0.06,WUHU216DAVISVP2,2013-01-29 23:22:00,
2013-01-29 16:27:00,36.5,19.1,30.25,WNW,284,5.0,17.0,49,0.00,,,0.06,WUHU216DAVISVP2,2013-01-29 23:27:00,
2013-01-29 16:32:00,36.8,20.3,30.25,West,279,8.0,13.0,51,0.00,,,0.06,WUHU216DAVISVP2,2013-01-29 23:32:00,
2013-01-29 16:37:00,36.8,19.3,30.25,WNW,291,3.0,15.0,49,0.00,,,0.06,WUHU216DAVISVP2,2013-01-29 23:37:00,
2013-01-29 16:42:00,36.6,19.2,30.25,West,278,8.0,16.0,49,0.00,,,0.06,WUHU216DAVISVP2,2013-01-29 23:42:00,
2013-01-29 16:47:00,36.5,19.1,30.25,NNW,343,4.0,16.0,49,0.00,,,0.06,WUHU216DAVISVP2,2013-01-29 23:47:00,
2013-01-29 16:52:00,36.5,19.1,30.26,NW,312,4.0,13.0,49,0.00,,,0.06,WUHU216DAVISVP2,2013-01-29 23:52:00,
2013-01-29 16:57:00,36.4,19.5,30.26,NW,318,5.0,13.0,50,0.00,,,0.06,WUHU216DAVISVP2,2013-01-29 23:57:00,
2013-01-29 17:02:00,36.4,19.5,30.26,WNW,293,5.0,11.0,50,0.00,,,0.06,WUHU216DAVISVP2,2013-01-30 00:02:00,
2013-01-29 17:07:00,36.5,19.6,30.27,NW,316,6.0,11.0,50,0.00,,,0.06,WUHU216DAVISVP2,2013-01-30 00:07:00,
2013-01-29 17:12:00,36.5,20.0,30.26,NW,320,1.0,9.0,51,0.00,,,0.06,WUHU216DAVISVP2,2013-01-30 00:12:00,
2013-01-29 17:17:00,36.5,20.0,30.26,WNW,294,7.0,11.0,51,0.00,,,0.06,WUHU216DAVISVP2,2013-01-30 00:17:00,
2013-01-29 17:22:00,36.5,19.6,30.27,North,360,1.0,11.0,50,0.00,,,0.06,WUHU216DAVISVP2,2013-01-30 00:22:00,
2013-01-29 17:27:00,36.5,20.0,30.27,West,271,4.0,10.0,51,0.00,,,0.06,WUHU216DAVISVP2,2013-01-30 00:27:00,
2013-01-29 17:32:00,36.4,19.5,30.27,North,5,1.0,10.0,50,0.00,,,0.06,WUHU216DAVISVP2,2013-01-30 00:32:00,
2013-01-29 17:37:00,36.4,19.5,30.27,NW,306,8.0,13.0,50,0.00,,,0.06,WUHU216DAVISVP2,2013-01-30 00:37:00,
2013-01-29 17:42:00,36.4,19.5,30.27,NNW,328,8.0,13.0,50,0.00,,,0.06,WUHU216DAVISVP2,2013-01-30 00:42:00,
2013-01-29 17:47:00,36.2,19.3,30.28,North,355,7.0,11.0,50,0.00,,,0.06,WUHU216DAVISVP2,2013-01-30 00:47:00,
2013-01-29 17:52:00,36.1,19.2,30.28,NNW,331,5.0,15.0,50,0.00,,,0.06,WUHU216DAVISVP2,2013-01-30 00:52:00,
2013-01-29 17:57:00,36.0,19.1,30.28,NNW,333,6.0,15.0,50,0.00,,,0.06,WUHU216DAVISVP2,2013-01-30 00:57:00,
2013-01-29 18:02:00,35.9,19.5,30.28,North,355,6.0,14.0,51,0.00,,,0.06,WUHU216DAVISVP2,2013-01-30 01:02:00,
2013-01-29 18:07:00,35.7,19.3,30.28,WNW,294,2.0,12.0,51,0.00,,,0.06,WUHU216DAVISVP2,2013-01-30 01:07:00,
2013-01-29 18:12:00,35.5,19.6,30.28,NNW,338,3.0,15.0,52,0.00,,,0.06,WUHU216DAVISVP2,2013-01-30 01:12:00,
2013-01-29 18:17:00,35.4,19.9,30.28,NW,323,3.0,15.0,53,0.00,,,0.06,WUHU216DAVISVP2,2013-01-30 01:17:00,
2013-01-29 18:22:00,35.2,19.8,30.28,NW,313,10.0,11.0,53,0.00,,,0.06,WUHU216DAVISVP2,2013-01-30 01:22:00,
2013-01-29 18:27:00,35.2,19.8,30.28,NNW,327,10.0,11.0,53,0.00,,,0.06,WUHU216DAVISVP2,2013-01-30 01:27:00,
2013-01-29 18:32:00,35.2,19.8,30.28,WNW,286,2.0,11.0,53,0.00,,,0.06,WUHU216DAVISVP2,2013-01-30 01:32:00,
2013-01-29 18:37:00,35.0,20.0,30.28,North,355,4.0,8.0,54,0.00,,,0.06,WUHU216DAVISVP2,2013-01-30 01:37:00,
2013-01-29 18:42:00,34.8,19.8,30.29,North,5,1.0,6.0,54,0.00,,,0.06,WUHU216DAVISVP2,2013-01-30 01:42:00,
2013-01-29 18:47:00,34.8,19.8,30.29,NNW,342,1.0,7.0,54,0.00,,,0.06,WUHU216DAVISVP2,2013-01-30 01:47:00,
2013-01-29 18:52:00,34.7,20.2,30.29,WNW,294,0.0,7.0,55,0.00,,,0.06,WUHU216DAVISVP2,2013-01-30 01:52:00,
2013-01-29 18:57:00,34.6,20.1,30.29,North,355,4.0,12.0,55,0.00,,,0.06,WUHU216DAVISVP2,2013-01-30 01:57:00,
2013-01-29 19:02:00,34.9,19.9,30.29,NW,309,6.0,12.0,54,0.00,,,0.06,WUHU216DAVISVP2,2013-01-30 02:02:00,
2013-01-29 19:07:00,35.0,20.5,30.29,NW,306,8.0,10.0,55,0.00,,,0.06,WUHU216DAVISVP2,2013-01-30 02:07:00,
2013-01-29 19:12:00,35.1,20.1,30.29,West,267,7.0,11.0,54,0.00,,,0.06,WUHU216DAVISVP2,2013-01-30 02:12:00,
2013-01-29 19:17:00,35.2,20.6,30.29,North,360,3.0,11.0,55,0.00,,,0.06,WUHU216DAVISVP2,2013-01-30 02:17:00,
2013-01-29 19:22:00,35.2,20.6,30.29,NNW,340,9.0,10.0,55,0.00,,,0.06,WUHU216DAVISVP2,2013-01-30 02:22:00,
2013-01-29 19:27:00,35.2,20.6,30.30,NNW,343,5.0,10.0,55,0.00,,,0.06,WUHU216DAVISVP2,2013-01-30 02:27:00,
2013-01-29 19:32:00,35.1,20.6,30.30,NNW,342,4.0,8.0,55,0.00,,,0.06,WUHU216DAVISVP2,2013-01-30 02:32:00,
2013-01-29 19:37:00,35.2,20.6,30.30,NW,312,4.0,9.0,55,0.00,,,0.06,WUHU216DAVISVP2,2013-01-30 02:37:00,
2013-01-29 19:42:00,35.2,20.6,30.31,WNW,294,5.0,9.0,55,0.00,,,0.06,WUHU216DAVISVP2,2013-01-30 02:42:00,
2013-01-29 19:47:00,35.0,21.7,30.31,West,261,1.0,7.0,58,0.00,,,0.06,WUHU216DAVISVP2,2013-01-30 02:47:00,
2013-01-29 19:52:00,34.8,21.5,30.31,West,267,4.0,9.0,58,0.00,,,0.06,WUHU216DAVISVP2,2013-01-30 02:52:00,
2013-01-29 19:57:00,34.5,21.7,30.31,WNW,284,6.0,9.0,59,0.00,,,0.06,WUHU216DAVISVP2,2013-01-30 02:57:00,
2013-01-29 20:02:00,34.3,21.9,30.31,NNW,346,1.0,8.0,60,0.00,,,0.06,WUHU216DAVISVP2,2013-01-30 03:02:00,
2013-01-29 20:07:00,34.4,21.9,30.32,WNW,303,2.0,8.0,60,0.00,,,0.06,WUHU216DAVISVP2,2013-01-30 03:07:00,
2013-01-29 20:12:00,34.6,21.7,30.32,NW,324,1.0,10.0,59,0.00,,,0.06,WUHU216DAVISVP2,2013-01-30 03:12:00,
2013-01-29 20:17:00,34.8,22.0,30.32,WNW,288,5.0,10.0,59,0.00,,,0.06,WUHU216DAVISVP2,2013-01-30 03:17:00,
2013-01-29 20:22:00,34.8,22.0,30.33,NW,315,3.0,9.0,59,0.00,,,0.06,WUHU216DAVISVP2,2013-01-30 03:22:00,
2013-01-29 20:27:00,34.7,21.8,30.33,NW,313,2.0,9.0,59,0.00,,,0.06,WUHU216DAVISVP2,2013-01-30 03:27:00,
2013-01-29 20:32:00,34.4,22.0,30.33,West,281,6.0,7.0,60,0.00,,,0.06,WUHU216DAVISVP2,2013-01-30 03:32:00,
2013-01-29 20:37:00,34.3,22.3,30.33,West,268,2.0,7.0,61,0.00,,,0.06,WUHU216DAVISVP2,2013-01-30 03:37:00,
2013-01-29 20:42:00,33.4,22.6,30.33,WSW,249,4.0,7.0,64,0.00,,,0.06,WUHU216DAVISVP2,2013-01-30 03:42:00,
2013-01-29 20:47:00,32.6,22.9,30.33,WSW,255,2.0,7.0,67,0.00,,,0.06,WUHU216DAVISVP2,2013-01-30 03:47:00,
2013-01-29 20:52:00,32.3,23.3,30.34,West,265,5.0,10.0,69,0.00,,,0.06,WUHU216DAVISVP2,2013-01-30 03:52:00,
2013-01-29 20:57:00,32.3,23.3,30.34,West,267,5.0,10.0,69,0.00,,,0.06,WUHU216DAVISVP2,2013-01-30 03:57:00,
2013-01-29 21:02:00,32.5,23.2,30.34,West,268,3.0,9.0,68,0.00,,,0.06,WUHU216DAVISVP2,2013-01-30 04:02:00,
2013-01-29 21:07:00,32.8,23.1,30.35,NW,306,4.0,9.0,67,0.00,,,0.06,WUHU216DAVISVP2,2013-01-30 04:07:00,
2013-01-29 21:12:00,33.3,23.2,30.35,North,5,2.0,8.0,66,0.00,,,0.06,WUHU216DAVISVP2,2013-01-30 04:12:00,
2013-01-29 21:17:00,33.5,23.1,30.35,NW,312,1.0,8.0,65,0.00,,,0.06,WUHU216DAVISVP2,2013-01-30 04:17:00,
2013-01-29 21:22:00,34.0,23.1,30.36,NNE,28,6.0,9.0,64,0.00,,,0.06,WUHU216DAVISVP2,2013-01-30 04:22:00,
2013-01-29 21:27:00,33.9,23.4,30.36,NE,40,7.0,11.0,65,0.00,,,0.06,WUHU216DAVISVP2,2013-01-30 04:27:00,
2013-01-29 21:32:00,33.4,23.3,30.36,NNE,15,10.0,11.0,66,0.00,,,0.06,WUHU216DAVISVP2,2013-01-30 04:32:00,
2013-01-29 21:37:00,33.2,23.5,30.36,North,11,3.0,10.0,67,0.00,,,0.06,WUHU216DAVISVP2,2013-01-30 04:37:00,
2013-01-29 21:42:00,33.0,22.9,30.37,NNE,24,5.0,9.0,66,0.00,,,0.06,WUHU216DAVISVP2,2013-01-30 04:42:00,
2013-01-29 21:47:00,32.9,23.2,30.38,NNE,12,6.0,8.0,67,0.00,,,0.06,WUHU216DAVISVP2,2013-01-30 04:47:00,
2013-01-29 21:52:00,32.7,23.0,30.38,North,355,2.0,7.0,67,0.00,,,0.06,WUHU216DAVISVP2,2013-01-30 04:52:00,
2013-01-29 21:57:00,32.4,23.1,30.38,North,350,2.0,7.0,68,0.00,,,0.06,WUHU216DAVISVP2,2013-01-30 04:57:00,
2013-01-29 22:00:00,32.3,23.3,30.38,North,355,4.0,7.0,69,0.00,,,0.06,WUHU216DAVISVP2,2013-01-30 05:00:00,
2013-01-29 22:03:00,32.2,23.2,30.38,NNW,344,0.0,7.0,69,0.00,,,0.06,WUHU216DAVISVP2,2013-01-30 05:03:00,
2013-01-29 22:08:00,31.9,23.3,30.38,North,355,4.0,6.0,70,0.00,,,0.06,WUHU216DAVISVP2,2013-01-30 05:08:00,
2013-01-29 22:13:00,31.7,23.4,30.39,NNE,20,2.0,6.0,71,0.00,,,0.06,WUHU216DAVISVP2,2013-01-30 05:13:00,
2013-01-29 22:18:00,31.6,23.7,30.39,NE,44,2.0,6.0,72,0.00,,,0.06,WUHU216DAVISVP2,2013-01-30 05:18:00,
2013-01-29 22:23:00,31.4,23.8,30.39,NNE,32,0.0,5.0,73,0.00,,,0.06,WUHU216DAVISVP2,2013-01-30 05:23:00,
2013-01-29 22:28:00,31.4,24.1,30.39,North,355,1.0,5.0,74,0.00,,,0.06,WUHU216DAVISVP2,2013-01-30 05:28:00,
2013-01-29 22:33:00,31.3,24.3,30.40,North,11,0.0,5.0,75,0.00,,,0.06,WUHU216DAVISVP2,2013-01-30 05:33:00,
2013-01-29 22:38:00,31.2,24.5,30.40,NNW,344,5.0,8.0,76,0.00,,,0.06,WUHU216DAVISVP2,2013-01-30 05:38:00,
2013-01-29 22:43:00,31.2,24.9,30.40,NNW,344,2.0,8.0,77,0.00,,,0.06,WUHU216DAVISVP2,2013-01-30 05:43:00,
2013-01-29 22:48:00,31.2,24.9,30.40,NW,319,0.0,5.0,77,0.00,,,0.06,WUHU216DAVISVP2,2013-01-30 05:48:00,
2013-01-29 22:53:00,31.2,25.2,30.40,North,360,0.0,4.0,78,0.00,,,0.06,WUHU216DAVISVP2,2013-01-30 05:53:00,
2013-01-29 22:58:00,31.1,25.1,30.40,North,9,3.0,4.0,78,0.00,,,0.06,WUHU216DAVISVP2,2013-01-30 05:58:00,
2013-01-29 23:03:00,31.1,25.1,30.39,NNW,329,5.0,5.0,78,0.00,,,0.06,WUHU216DAVISVP2,2013-01-30 06:03:00,
2013-01-29 23:08:00,31.0,25.3,30.39,NNW,339,3.0,6.0,79,0.00,,,0.06,WUHU216DAVISVP2,2013-01-30 06:08:00,
2013-01-29 23:13:00,30.9,25.2,30.40,NW,318,1.0,6.0,79,0.00,,,0.06,WUHU216DAVISVP2,2013-01-30 06:13:00,
2013-01-29 23:18:00,30.8,25.4,30.40,NNE,13,3.0,5.0,80,0.00,,,0.06,WUHU216DAVISVP2,2013-01-30 06:18:00,
2013-01-29 23:23:00,30.8,25.4,30.40,NNW,335,0.0,5.0,80,0.00,,,0.06,WUHU216DAVISVP2,2013-01-30 06:23:00,
2013-01-29 23:28:00,30.7,25.3,30.40,WNW,294,0.0,5.0,80,0.00,,,0.06,WUHU216DAVISVP2,2013-01-30 06:28:00,
2013-01-29 23:33:00,30.7,25.0,30.40,WNW,294,1.0,4.0,79,0.00,,,0.06,WUHU216DAVISVP2,2013-01-30 06:33:00,
2013-01-29 23:38:00,30.6,24.6,30.40,WNW,296,2.0,5.0,78,0.00,,,0.06,WUHU216DAVISVP2,2013-01-30 06:38:00,
2013-01-29 23:43:00,30.6,24.6,30.40,NW,306,3.0,5.0,78,0.00,,,0.06,WUHU216DAVISVP2,2013-01-30 06:43:00,
2013-01-29 23:48:00,30.5,24.2,30.41,NW,308,3.0,5.0,77,0.00,,,0.06,WUHU216DAVISVP2,2013-01-30 06:48:00,
2013-01-29 23:53:00,30.5,24.2,30.41,NNW,331,3.0,5.0,77,0.00,,,0.06,WUHU216DAVISVP2,2013-01-30 06:53:00,
2013-01-29 23:58:00,30.5,23.9,30.42,North,360,1.0,5.0,76,0.00,,,0.06,WUHU216DAVISVP2,2013-01-30 06:58:00,